Flint, MI (48555)

9:10 AM EDT on October 31, 2014 (GMT -0400)
Flint Township | Change Station
CLOSE
Current Station
Personal Weather Station
Location: Flint, MI
Elevation: 755 ft
Nearby Weather Stations

Elev 755 ft 43.01 °N, 83.80 °W | Updated 6 minutes ago

Rain
Rain
42.1 °F
Feels Like 42 °F
N
3.0
Wind Variable Wind from WNW
Gusts 8.0 mph

Today
High -- | Low -- °F
--% Chance of Precip.
Yesterday
High -- | Low -- °F
Precip. -- in
8:08 AM 6:28 PM
First Quarter, 55% visible
Pressure 29.91 in
Visibility 6.0 miles
Clouds Scattered Clouds 800 ft
Mostly Cloudy 1400 ft
Overcast 6500 ft
Windchill 42 °F
Dew Point 39 °F
Humidity 89%
Rainfall -999.00 in
Snow Depth Not available.
UV 0 out of 12
Pollen .10 out of 12
Air Quality Not available.
Flu Activity Not available.
SPECI KFNT 311302Z 35006KT 6SM -RA BR SCT008 BKN014 OVC065 06/03 A2991 RMK AO2 P0000 T00560033

More Conditions Fewer Conditions

Pressure 29.91 in
Visibility 6.0 miles
Clouds Scattered Clouds 800 ft
Mostly Cloudy 1400 ft
Overcast 6500 ft
Windchill 42 °F
Dew Point 39 °F
Humidity 89%
Rainfall -999.00 in
Snow Depth Not available.
UV 0 out of 12
Pollen .10 out of 12
Air Quality Not available.
Flu Activity Not available.
SPECI KFNT 311302Z 35006KT 6SM -RA BR SCT008 BKN014 OVC065 06/03 A2991 RMK AO2 P0000 T00560033

More Conditions Fewer Conditions

10-Day Weather Forecast

Almanac

Astronomy

Oct. 31, 2014 Rise Set
Actual Time
Civil Twilight
Nautical Twilight
Astronomical Twilight
Moon
Length of Visible Light
Length of Day
Tomorrow will be .
, % of the Moon is Illuminated

Today's Extremes

State Highs State Lows

Community

WunderPhotos

Upload Photos

1,766,602 photos uploaded!

WunderBlogs® & News

Nearby

Air Quality

  Air Quality AQ Index Pollutant
Not available.

Snow Depth

Station Depth Elevation

Earthquake Activity

City Distance Mag. Time & Date
Minimum magnitude displayed is 2.5.

Coastal Water Temperatures

Place Temperature

Nearby Weather Stations